Date,TemperatureHighF,TemperatureAvgF,TemperatureLowF,DewpointHighF,DewpointAvgF,DewpointLowF,HumidityHigh,HumidityAvg,HumidityLow,PressureMaxIn,PressureMinIn,WindSpeedMaxMPH,WindSpeedAvgMPH,GustSpeedMaxMPH,PrecipitationSumIn
2013-11-1,68.9,60.5,53.2,64.0,49.9,44.1,91,70,47,29.75,29.46,33,6,34,0.76
2013-11-2,58.6,50.9,45.7,45.9,41.8,37.0,86,72,47,30.08,29.74,15,3,16,0.00
2013-11-3,55.6,46.0,38.8,41.7,37.7,35.2,88,73,53,30.34,30.08,10,2,12,0.00
2013-11-4,62.8,51.2,39.9,40.8,37.4,34.5,84,61,39,30.39,30.29,14,3,15,0.00
2013-11-5,67.5,57.9,51.1,39.6,36.2,29.8,64,46,25,30.40,30.22,12,4,17,0.00
2013-11-6,73.2,62.4,54.1,59.9,48.6,33.8,96,63,44,30.23,29.96,28,7,33,0.66
2013-11-7,60.1,46.4,40.6,58.6,36.6,27.5,95,71,44,30.26,29.97,17,5,20,0.90
2013-11-8,53.8,43.6,33.6,31.8,28.3,23.9,83,57,32,30.39,30.25,12,2,12,0.00
2013-11-9,63.5,50.4,38.5,34.2,28.4,24.4,68,45,24,30.26,30.10,24,6,28,0.00
2013-11-10,54.7,49.0,40.8,39.9,31.1,24.1,77,52,31,30.32,30.16,17,4,17,0.00
2013-11-11,64.8,50.1,34.2,30.9,26.5,20.7,80,44,19,30.30,30.10,12,3,14,0.00
2013-11-12,54.9,33.9,27.7,43.2,25.5,16.7,95,73,39,30.62,30.11,23,7,25,0.07
2013-11-13,42.1,32.8,24.3,25.7,21.4,18.1,87,64,43,30.68,30.44,10,2,11,0.00
2013-11-14,56.7,43.4,32.5,23.9,20.5,17.4,61,42,22,30.44,30.21,17,4,17,0.00
2013-11-15,57.7,49.6,42.8,46.4,32.1,19.0,92,53,36,30.21,30.09,17,5,18,0.01
2013-11-16,63.0,55.8,46.8,55.6,51.5,44.8,95,86,75,30.14,29.94,29,7,29,0.02
2013-11-17,66.7,63.8,57.7,63.0,57.7,45.0,95,81,56,29.95,29.62,32,10,36,1.78
2013-11-18,57.6,51.1,41.4,46.2,37.0,28.2,81,60,36,30.17,29.81,17,4,21,0.53
2013-11-19,44.1,38.1,33.1,30.6,28.5,26.6,78,68,56,30.30,30.17,15,-2,19,0.00
2013-11-20,58.6,44.2,31.5,32.2,28.8,25.7,80,57,31,30.31,30.20,14,4,15,0.00
2013-11-21,62.2,54.2,46.2,52.7,40.4,27.9,81,60,46,30.32,30.17,19,5,22,0.00
2013-11-22,59.0,53.9,41.0,57.4,51.6,35.8,96,92,81,30.31,30.13,18,5,19,0.50
2013-11-23,43.9,36.2,24.6,36.3,26.4,13.8,87,69,34,30.52,30.29,23,6,24,0.00
2013-11-24,29.1,24.1,18.3,16.0,10.4,5.2,77,56,41,30.70,30.52,18,4,27,0.00
2013-11-25,44.8,33.3,22.5,33.4,18.7,12.2,95,58,32,30.53,30.21,16,4,17,0.00
2013-11-26,36.7,34.6,31.8,35.6,33.4,30.4,97,95,93,30.22,29.86,15,4,15,0.48
2013-11-27,32.2,29.0,22.5,30.6,24.5,18.0,94,83,67,30.33,29.91,22,6,22,0.00
2013-11-28,38.8,29.1,21.0,25.0,20.3,15.8,88,70,52,30.49,30.33,23,4,23,0.00
2013-11-29,46.0,36.6,24.6,26.6,23.1,18.1,82,59,44,30.62,30.48,9,2,11,0.00
2013-11-30,56.7,43.3,31.1,31.5,27.5,23.9,80,56,35,30.49,30.22,17,4,19,0.00